KFGX

Fleming-Mason Airport

Flemingsburg, Kentucky, USA
METAR KFGX 151535Z AUTO 04006KT 7SM -RA BKN002 BKN012 OVC027 10/10 A2992 RMK AO2 T00950095
Observed Flight Rules
Dec-15 @ 15:35 UTC (30 minutes ago) Instrument Flight Rules
Wind Visibility Clouds Conditions
40° at 6 knots 7 miles
  • Broken at 200' AGL
  • Broken at 1,200' AGL
  • Overcast at 2,700' AGL
  • Light Rain
Temperatures Readings
Current 10°C / 50°F
Dewpoint 10°C / 50°F
Humidity 100%
Altimeter 29.92" Hg
Pressure 1013 hPa
Elevation 278
METAR KFGX 151535Z AUTO 04006KT 7SM -RA BKN002 BKN012 OVC027 10/10 A2992 RMK AO2 T00950095
Observed Flight Rules
Dec-15 @ 15:35 UTC
(30 minutes ago)
LIFR
Wind Visibility
40° at 6 knots 7 miles
Clouds
  • Broken at 200' AGL
  • Broken at 1,200' AGL
  • Overcast at 2,700' AGL
Conditions
  • Light Rain
Temperature Dewpoint
10°C / 50°F 10°C / 50°F
Humidity Altimeter Pressure
100% 29.92" Hg 1013 hPa